Mackinaw City, MI (49701)

8:12 AM EST on December 29, 2014 (GMT -0500)
NOS_NWLON Mackinaw City, MI NWLON | Change Station
CLOSE
Current Station
Personal Weather Station
Location: Mackinaw City, MI
Elevation: 580 ft
Nearby Weather Stations

Elev 580 ft 45.78 °N, 84.73 °W | Updated 1 day ago

Snow
Snow
20 °F
Feels Like 9 °F
N
12
Wind Variable Wind from WNW
Gusts 12 mph

Today
High -- | Low -- °F
--% Chance of Precip.
Yesterday
High -- | Low -- °F
Precip. -- in
8:19 AM 5:02 PM
First Quarter, 59% visible
Pressure 30.26 in
Visibility 10.0 miles
Clouds Scattered Clouds 3800 ft
Windchill 9 °F
Dew Point 13 °F
Humidity 70%
Rainfall -999.00 in
Snow Depth Not available.
UV 0 out of 12
Pollen .10 out of 12
Air Quality Not available.
Flu Activity Not available.
METAR KMCD 291255Z AUTO 29011G18KT 10SM SCT038 M07/M11 A3026 RMK AO2 T10701110

More Conditions Fewer Conditions

Pressure 30.26 in
Visibility 10.0 miles
Clouds Scattered Clouds 3800 ft
Windchill 9 °F
Dew Point 13 °F
Humidity 70%
Rainfall -999.00 in
Snow Depth Not available.
UV 0 out of 12
Pollen .10 out of 12
Air Quality Not available.
Flu Activity Not available.
METAR KMCD 291255Z AUTO 29011G18KT 10SM SCT038 M07/M11 A3026 RMK AO2 T10701110

More Conditions Fewer Conditions

Nowcast | as of 8:00 am EST on December 29, 2014

At 9 am...mostly cloudy. Chance of snow showers. Temperature 17. Northwest winds 8 mph. At 11 am...mostly cloudy. Chance of snow showers. Temperature 18. Northwest winds 9 mph. At 1 PM...mostly cloudy. Chance of snow showers. Temperature 21. Northwest winds 9 mph. At 3 PM...mostly cloudy. Chance of snow showers. Temperature 23. Northwest winds 11 mph.

×

10-Day Weather Forecast

Almanac

Astronomy

Dec. 29, 2014 Rise Set
Actual Time
Civil Twilight
Nautical Twilight
Astronomical Twilight
Moon
Length of Visible Light
Length of Day
Tomorrow will be .
, % of the Moon is Illuminated

Today's Extremes

State Highs State Lows

Community

WunderPhotos

Upload Photos

1,781,577 photos uploaded!

WunderBlogs® & News

Nearby

Air Quality

  Air Quality AQ Index Pollutant
Not available.

Snow Depth

Station Depth Elevation

Earthquake Activity

City Distance Mag. Time & Date
Minimum magnitude displayed is 2.5.

Coastal Water Temperatures

Place Temperature

Nearby Weather Stations